createdAt,value
2023-03-28T00:04:42.323Z,13.52
2023-03-28T00:09:44.814Z,19.27
2023-03-28T00:14:47.576Z,18.48
2023-03-28T00:19:50.841Z,19.67
2023-03-28T00:24:54.123Z,19.67
2023-03-28T00:29:56.993Z,18.02
2023-03-28T00:34:59.757Z,23.20
2023-03-28T00:40:02.391Z,21.05
2023-03-28T00:45:11.647Z,18.50
2023-03-28T00:55:50.563Z,19.73
2023-03-28T01:00:55.095Z,19.92
2023-03-28T01:11:12.169Z,24.23
2023-03-28T01:16:17.760Z,17.60
2023-03-28T01:21:56.654Z,17.75
2023-03-28T01:27:34.641Z,21.10
2023-03-28T01:49:16.074Z,28.38
2023-03-28T01:59:48.392Z,24.70
2023-03-28T02:05:19.645Z,22.02
2023-03-28T02:10:26.574Z,21.13
2023-03-28T02:15:44.468Z,21.52
2023-03-28T02:21:16.234Z,19.40
2023-03-28T02:26:28.008Z,28.67
2023-03-28T02:31:38.847Z,18.42
2023-03-28T02:57:54.073Z,31.67
2023-03-28T03:02:57.792Z,21.90
2023-03-28T03:08:00.794Z,19.70
2023-03-28T03:13:03.551Z,20.98
2023-03-28T03:18:07.594Z,25.52
2023-03-28T03:23:10.447Z,34.72
2023-03-28T03:28:13.632Z,18.33
2023-03-28T03:33:17.515Z,33.90
2023-03-28T03:38:23.378Z,47.92
2023-03-28T03:43:27.902Z,36.25
2023-03-28T03:53:35.552Z,78.07
2023-03-28T03:58:43.575Z,59.85
2023-03-28T04:03:48.393Z,23.10
2023-03-28T04:08:59.848Z,47.65
2023-03-28T04:14:22.521Z,63.88
2023-03-28T04:19:29.742Z,42.17
2023-03-28T04:24:33.175Z,60.45
2023-03-28T04:29:54.410Z,41.60
2023-03-28T04:35:17.130Z,67.88
2023-03-28T04:40:28.196Z,32.58
2023-03-28T04:45:48.829Z,34.30
2023-03-28T04:50:54.509Z,34.63
2023-03-28T04:55:57.212Z,17.85
2023-03-28T05:01:04.160Z,25.77
2023-03-28T05:06:27.162Z,37.42
2023-03-28T05:16:34.133Z,33.33
2023-03-28T05:21:58.376Z,23.15
2023-03-28T05:27:01.592Z,24.02
2023-03-28T05:32:04.682Z,18.42
2023-03-28T05:37:07.903Z,32.42
2023-03-28T05:42:20.048Z,26.08
2023-03-28T05:47:23.188Z,30.38
2023-03-28T05:52:26.612Z,31.77
2023-03-28T05:57:29.449Z,23.15
2023-03-28T06:02:33.907Z,18.90
2023-03-28T06:07:42.575Z,18.40
2023-03-28T06:12:49.571Z,23.75
2023-03-28T06:17:52.649Z,28.73
2023-03-28T06:22:55.517Z,16.88
2023-03-28T06:27:58.325Z,17.88
2023-03-28T06:33:02.300Z,28.92
2023-03-28T06:38:05.446Z,25.85
2023-03-28T06:43:08.243Z,16.15
2023-03-28T06:48:21.312Z,24.90
2023-03-28T06:53:43.689Z,16.65
2023-03-28T06:58:47.227Z,35.17
2023-03-28T07:03:53.998Z,49.30
2023-03-28T07:09:02.222Z,46.88
2023-03-28T07:14:16.023Z,46.13
2023-03-28T07:19:24.519Z,54.63
2023-03-28T07:24:31.006Z,49.17
2023-03-28T07:29:40.239Z,41.83
2023-03-28T07:34:43.267Z,49.22
2023-03-28T07:39:49.185Z,39.70
2023-03-28T07:44:56.460Z,37.05
2023-03-28T07:49:59.065Z,39.50
2023-03-28T07:55:02.520Z,37.67
2023-03-28T08:00:13.784Z,53.70
2023-03-28T08:05:20.228Z,33.22
2023-03-28T08:10:23.142Z,39.45
2023-03-28T08:15:26.482Z,29.10
2023-03-28T08:20:29.551Z,36.90
2023-03-28T08:25:51.406Z,46.72
2023-03-28T08:30:57.686Z,40.80
2023-03-28T08:36:01.004Z,49.67
2023-03-28T08:46:22.412Z,60.22
2023-03-28T08:51:34.207Z,74.75
2023-03-28T08:56:52.244Z,53.90
2023-03-28T09:02:05.467Z,59.25
2023-03-28T09:07:41.561Z,64.60
2023-03-28T09:29:03.678Z,36.08
2023-03-28T09:34:19.644Z,38.50
2023-03-28T09:44:54.027Z,27.67
2023-03-28T09:50:31.895Z,30.75
2023-03-28T09:55:36.785Z,41.47
2023-03-28T10:00:45.497Z,45.83
2023-03-28T10:06:30.527Z,30.73
2023-03-28T10:11:56.852Z,25.17
2023-03-28T10:17:08.449Z,28.85
2023-03-28T10:22:38.256Z,30.00
2023-03-28T10:27:43.634Z,27.80
2023-03-28T10:33:24.536Z,21.20
2023-03-28T10:38:49.054Z,28.20
2023-03-28T10:44:19.591Z,34.05
2023-03-28T10:49:33.662Z,31.67
2023-03-28T11:06:08.017Z,19.98
2023-03-28T11:27:42.447Z,26.70
2023-03-28T11:32:58.985Z,21.73
2023-03-28T11:43:33.096Z,17.55
2023-03-28T11:48:55.576Z,23.45
2023-03-28T11:59:38.577Z,20.63
2023-03-28T12:04:49.054Z,18.35
2023-03-28T12:15:13.334Z,12.52
2023-03-28T12:25:58.085Z,24.42
2023-03-28T12:41:34.728Z,14.77
2023-03-28T12:51:59.276Z,15.85
2023-03-28T13:07:56.266Z,19.48
2023-03-28T13:13:13.089Z,18.98
2023-03-28T13:23:36.363Z,14.23
2023-03-28T13:28:51.703Z,30.08
2023-03-28T13:44:22.070Z,18.45
2023-03-28T13:49:36.490Z,21.40
2023-03-28T13:54:39.187Z,22.80
2023-03-28T14:05:13.309Z,21.20
2023-03-28T14:10:33.944Z,26.83
2023-03-28T14:15:39.973Z,24.38
2023-03-28T14:20:45.752Z,11.95
2023-03-28T14:25:49.545Z,24.10
2023-03-28T14:30:52.252Z,14.38
2023-03-28T14:35:58.225Z,17.65
2023-03-28T14:41:22.574Z,15.23
2023-03-28T14:46:28.918Z,14.95
2023-03-28T14:51:41.979Z,12.40
2023-03-28T14:56:45.977Z,24.15
2023-03-28T15:01:50.438Z,28.55
2023-03-28T15:06:58.414Z,35.35
2023-03-28T15:12:08.141Z,25.17
2023-03-28T15:17:20.047Z,26.92
2023-03-28T15:22:27.353Z,25.67
2023-03-28T15:27:34.374Z,22.63
2023-03-28T15:32:37.305Z,22.33
2023-03-28T15:37:43.964Z,23.38
2023-03-28T15:42:49.889Z,25.33
2023-03-28T15:47:55.615Z,20.92
2023-03-28T15:53:01.064Z,23.90
2023-03-28T15:58:05.647Z,29.67
2023-03-28T16:08:31.953Z,31.52
2023-03-28T16:13:34.873Z,27.45
2023-03-28T16:18:57.328Z,28.73
2023-03-28T16:24:00.984Z,24.92
2023-03-28T16:29:04.096Z,28.33
2023-03-28T16:34:09.329Z,35.40
2023-03-28T16:39:12.774Z,42.85
2023-03-28T16:44:15.537Z,28.40
2023-03-28T16:49:18.916Z,28.58
2023-03-28T16:54:22.529Z,32.97
2023-03-28T16:59:25.362Z,31.85
2023-03-28T17:04:29.768Z,25.20
2023-03-28T17:09:37.486Z,27.50
2023-03-28T17:14:40.730Z,31.33
2023-03-28T17:19:43.399Z,29.98
2023-03-28T17:24:47.009Z,33.17
2023-03-28T17:29:51.924Z,30.27
2023-03-28T17:34:54.719Z,40.88
2023-03-28T17:39:57.378Z,31.13
2023-03-28T17:45:00.160Z,30.30
2023-03-28T17:50:03.793Z,27.50
2023-03-28T17:55:06.784Z,29.98
2023-03-28T18:00:10.605Z,27.35
2023-03-28T18:05:18.175Z,25.13
2023-03-28T18:10:27.187Z,23.02
2023-03-28T18:15:29.965Z,21.27
2023-03-28T18:20:33.624Z,22.83
2023-03-28T18:25:38.435Z,30.25
2023-03-28T18:30:42.242Z,21.35
2023-03-28T18:35:46.996Z,21.15
2023-03-28T18:40:54.439Z,27.52
2023-03-28T18:45:57.126Z,19.63
2023-03-28T18:50:59.955Z,30.50
2023-03-28T18:56:03.548Z,31.10
2023-03-28T19:01:09.216Z,28.40
2023-03-28T19:06:15.073Z,22.45
2023-03-28T19:11:19.894Z,21.30
2023-03-28T19:16:22.650Z,22.58
2023-03-28T19:21:25.338Z,23.92
2023-03-28T19:26:28.112Z,25.05
2023-03-28T19:31:30.740Z,25.73
2023-03-28T19:36:33.413Z,32.67
2023-03-28T19:41:36.118Z,28.48
2023-03-28T19:46:41.273Z,27.83
2023-03-28T19:51:44.066Z,21.40
2023-03-28T19:56:48.758Z,20.02
2023-03-28T20:01:51.584Z,12.57
2023-03-28T20:06:54.497Z,16.48
2023-03-28T20:11:57.072Z,14.77
2023-03-28T20:16:59.811Z,11.50
2023-03-28T20:22:02.976Z,15.02
2023-03-28T20:27:06.248Z,12.02
2023-03-28T20:32:10.409Z,11.75
2023-03-28T20:37:14.262Z,14.57
2023-03-28T20:42:19.651Z,16.98
2023-03-28T20:47:25.276Z,10.77
2023-03-28T20:52:27.888Z,13.02
2023-03-28T20:57:30.512Z,11.10
2023-03-28T21:02:34.382Z,10.80
2023-03-28T21:07:37.128Z,18.50
2023-03-28T21:12:39.862Z,10.57
2023-03-28T21:17:42.821Z,10.23
2023-03-28T21:23:05.242Z,10.23
2023-03-28T21:28:07.910Z,12.90
2023-03-28T21:33:16.084Z,10.38
2023-03-28T21:38:19.224Z,9.20
2023-03-28T21:43:21.787Z,15.60
2023-03-28T21:48:24.468Z,10.60
2023-03-28T21:53:29.021Z,11.80
2023-03-28T21:58:32.873Z,12.45
2023-03-28T22:03:37.537Z,13.48
2023-03-28T22:08:41.069Z,10.95
2023-03-28T22:13:47.429Z,10.55
2023-03-28T22:18:50.390Z,12.15
2023-03-28T22:23:54.519Z,14.15
2023-03-28T22:28:58.564Z,13.27
2023-03-28T22:39:05.121Z,12.10
2023-03-28T22:44:10.505Z,12.15
2023-03-28T22:49:23.098Z,12.00
2023-03-28T22:54:27.167Z,14.93
2023-03-28T22:59:33.731Z,11.68
2023-03-28T23:04:37.851Z,14.07
2023-03-28T23:09:43.087Z,11.35
2023-03-28T23:14:49.018Z,12.35
2023-03-28T23:19:57.168Z,12.75
2023-03-28T23:25:02.467Z,11.30
2023-03-28T23:30:06.890Z,11.80
2023-03-28T23:35:11.424Z,12.77
2023-03-28T23:40:15.454Z,13.25
2023-03-28T23:45:18.594Z,16.33
2023-03-28T23:50:21.803Z,11.63
2023-03-28T23:55:26.337Z,12.93
